Time;durP1;ratioP1;P1;durP2;ratioP2;P2;SDS_P1;SDS_P2;PMS_P1;PMS_P2;Temp;Humidity;BMP_temperature;BMP_pressure;BME280_temperature;BME280_humidity;BME280_pressure;Samples;Min_cycle;Max_cycle;Signal;HPM_P1;HPM_P2
2021/04/06 00:07:40;;;;;;;5.7;2.8;;;;;;;-0.15;100;97427.19;;;;
2021/04/06 00:17:43;;;;;;;5.4;3.2;;;;;;;-0.27;100;97443.34;;;;
2021/04/06 00:27:34;;;;;;;5.8;3.7;;;;;;;-0.17;100;97440.68;;;;
2021/04/06 00:37:31;;;;;;;6.2;3.7;;;;;;;-0.11;100;97466.12;;;;
2021/04/06 00:47:28;;;;;;;6.7;4.5;;;;;;;-0.24;100;97477.22;;;;
2021/04/06 00:57:26;;;;;;;12.1;5.1;;;;;;;-0.32;100;97484.91;;;;
2021/04/06 01:07:23;;;;;;;7.4;4.3;;;;;;;-0.36;100;97489.94;;;;
2021/04/06 01:17:20;;;;;;;4.6;2.8;;;;;;;-0.36;100;97483.84;;;;
2021/04/06 01:27:18;;;;;;;6.8;4.1;;;;;;;-0.38;100;97481.45;;;;
2021/04/06 01:37:15;;;;;;;6.8;4.4;;;;;;;-0.41;100;97508.45;;;;
2021/04/06 01:47:14;;;;;;;10;4.2;;;;;;;-0.47;100;97520.09;;;;
2021/04/06 01:57:13;;;;;;;6.6;4.8;;;;;;;-0.48;100;97504.47;;;;
2021/04/06 02:07:10;;;;;;;10.6;6.8;;;;;;;-0.67;100;97480.38;;;;
2021/04/06 02:17:05;;;;;;;9;5.1;;;;;;;-0.67;100;97483.02;;;;
2021/04/06 02:27:02;;;;;;;11;7.2;;;;;;;-0.72;100;97493.58;;;;
2021/04/06 02:36:59;;;;;;;11.7;7.9;;;;;;;-0.58;100;97506.05;;;;
2021/04/06 02:46:57;;;;;;;12.2;7;;;;;;;-0.51;100;97516.38;;;;
2021/04/06 02:56:54;;;;;;;9.1;7.3;;;;;;;-0.48;100;97541.52;;;;
2021/04/06 03:06:51;;;;;;;9.6;5.8;;;;;;;-0.48;100;97531.73;;;;
2021/04/06 03:16:52;;;;;;;7.7;2.9;;;;;;;-0.55;100;97553.15;;;;
2021/04/06 03:26:46;;;;;;;7.8;4.9;;;;;;;-0.56;100;97570.11;;;;
2021/04/06 03:36:43;;;;;;;7.2;4.7;;;;;;;-0.56;100;97519.03;;;;
2021/04/06 03:46:41;;;;;;;8.1;4.6;;;;;;;-0.64;100;97496.52;;;;
2021/04/06 03:56:38;;;;;;;11.8;6.7;;;;;;;-0.68;100;97542.27;;;;
2021/04/06 04:06:36;;;;;;;9.4;6.1;;;;;;;-0.76;100;97532.19;;;;
2021/04/06 04:16:34;;;;;;;12.3;6;;;;;;;-0.8;100;97531.14;;;;
2021/04/06 04:26:30;;;;;;;10.4;5;;;;;;;-0.81;100;97564.73;;;;
2021/04/06 04:36:27;;;;;;;25.7;6.6;;;;;;;-0.75;100;97584.84;;;;
2021/04/06 04:46:25;;;;;;;17.9;5.3;;;;;;;-0.65;100;97576.14;;;;
2021/04/06 04:56:22;;;;;;;18.6;8.6;;;;;;;-0.53;100;97580.16;;;;
2021/04/06 05:06:19;;;;;;;10.9;6;;;;;;;-0.34;100;97614.87;;;;
2021/04/06 05:16:17;;;;;;;11;6.7;;;;;;;-0.33;100;97608.52;;;;
2021/04/06 05:26:14;;;;;;;9.4;4.9;;;;;;;-0.37;100;97615.39;;;;
2021/04/06 05:36:12;;;;;;;6.9;4.5;;;;;;;-0.46;100;97611.67;;;;
2021/04/06 05:46:09;;;;;;;7.6;5.6;;;;;;;-0.35;100;97629.18;;;;
2021/04/06 05:56:06;;;;;;;9.9;5.3;;;;;;;-0.13;100;97634.23;;;;
2021/04/06 06:06:04;;;;;;;12;7.2;;;;;;;0.16;100;97629.26;;;;
2021/04/06 06:16:08;;;;;;;10.5;6.3;;;;;;;0.13;100;97614.69;;;;
2021/04/06 06:26:08;;;;;;;11.1;6.2;;;;;;;0.32;100;97631.64;;;;
2021/04/06 06:35:56;;;;;;;10.2;7.5;;;;;;;0.24;100;97634.84;;;;
2021/04/06 06:45:53;;;;;;;11.7;7.1;;;;;;;0.19;100;97621.58;;;;
2021/04/06 06:55:54;;;;;;;9.3;6.5;;;;;;;0.1;100;97623.17;;;;
2021/04/06 07:05:51;;;;;;;8.4;4.9;;;;;;;0.21;100;97614.15;;;;
2021/04/06 07:15:47;;;;;;;11.8;5.3;;;;;;;0.27;100;97615.77;;;;
2021/04/06 07:25:43;;;;;;;15.6;7.5;;;;;;;-0.01;100;97621.56;;;;
2021/04/06 07:35:41;;;;;;;11.6;6.4;;;;;;;0.02;100;97633.48;;;;
2021/04/06 07:45:38;;;;;;;12;7.2;;;;;;;0.05;100;97627.65;;;;
2021/04/06 07:55:36;;;;;;;11.8;8.8;;;;;;;0.06;100;97626.6;;;;
2021/04/06 08:05:33;;;;;;;15.2;6.2;;;;;;;-0.03;100;97627.11;;;;
2021/04/06 08:15:32;;;;;;;18.8;8;;;;;;;0.25;99.85156;97607.27;;;;
2021/04/06 08:25:29;;;;;;;15.1;8.4;;;;;;;0.97;98.82617;97620.17;;;;
2021/04/06 08:35:26;;;;;;;16.2;8.1;;;;;;;1.38;94.57129;97646.6;;;;
2021/04/06 08:45:23;;;;;;;10.8;8.3;;;;;;;1.51;89.36621;97646.02;;;;
2021/04/06 08:55:21;;;;;;;13.2;8.9;;;;;;;1.14;91.55469;97649.07;;;;
2021/04/06 09:05:19;;;;;;;14.1;8.2;;;;;;;1.47;91.97754;97653.73;;;;
2021/04/06 09:15:16;;;;;;;14;7.3;;;;;;;1.26;91.32715;97640.79;;;;
2021/04/06 09:25:14;;;;;;;11.7;6.8;;;;;;;2.22;89.83301;97600.45;;;;
2021/04/06 09:35:12;;;;;;;12.4;7.5;;;;;;;2.25;88.40723;97607.87;;;;
2021/04/06 09:45:09;;;;;;;22.3;9.5;;;;;;;2.27;87.03223;97606.51;;;;
2021/04/06 09:55:07;;;;;;;15.7;7.1;;;;;;;2.93;86.8916;97598.73;;;;
2021/04/06 10:05:05;;;;;;;13;6.1;;;;;;;2.78;80.80078;97622.81;;;;
2021/04/06 10:15:03;;;;;;;10.3;7.3;;;;;;;2.62;79.27832;97629.36;;;;
2021/04/06 10:25:00;;;;;;;11.6;5.6;;;;;;;2.88;81.49609;97636.02;;;;
2021/04/06 10:35:04;;;;;;;6.5;4.2;;;;;;;3.41;76.97168;97606.7;;;;
2021/04/06 10:45:00;;;;;;;12.5;5.2;;;;;;;3.09;73.8291;97614.55;;;;
2021/04/06 10:50:21;;;;;;;6.2;4.1;;;;;;;3.57;77.55469;97605.45;;;;
2021/04/06 11:00:18;;;;;;;9;6.4;;;;;;;3.42;76.55176;97601.11;;;;
2021/04/06 11:10:16;;;;;;;9.6;6.6;;;;;;;3.72;76.68262;97604.44;;;;
2021/04/06 11:20:14;;;;;;;10.6;7.5;;;;;;;3.86;72.75098;97591.98;;;;
2021/04/06 11:30:13;;;;;;;14.3;6.9;;;;;;;3.97;71.58984;97585.44;;;;
2021/04/06 11:40:10;;;;;;;11.8;6.7;;;;;;;4.09;71.89844;97577.02;;;;
2021/04/06 11:50:08;;;;;;;13.6;7.8;;;;;;;4.52;70.36523;97559.76;;;;
2021/04/06 12:00:06;;;;;;;8.9;4.7;;;;;;;3.95;67.08984;97556.42;;;;
2021/04/06 12:10:05;;;;;;;9.8;5.4;;;;;;;4.4;64.06641;97540.77;;;;
2021/04/06 12:20:02;;;;;;;11.4;7;;;;;;;4.28;69.50293;97527.09;;;;
2021/04/06 12:30:00;;;;;;;11.5;8.1;;;;;;;4.9;67.29297;97539.84;;;;
2021/04/06 12:39:59;;;;;;;10;7.2;;;;;;;4.76;70.39453;97528.37;;;;
2021/04/06 12:49:57;;;;;;;12.7;7.3;;;;;;;4.8;63.25488;97529.36;;;;
2021/04/06 12:59:55;;;;;;;18.5;4.6;;;;;;;5.21;60.60645;97513.33;;;;
2021/04/06 13:09:53;;;;;;;13.6;7.9;;;;;;;5.82;61.44434;97502.11;;;;
2021/04/06 13:19:51;;;;;;;11.5;6.3;;;;;;;5.46;61.68359;97503.98;;;;
2021/04/06 13:29:49;;;;;;;19;6.9;;;;;;;5.48;61.41895;97499.91;;;;
2021/04/06 13:39:48;;;;;;;10.7;7.4;;;;;;;5.47;65.02051;97500.23;;;;
2021/04/06 13:49:46;;;;;;;11.3;7;;;;;;;4.21;67.8418;97522.14;;;;
2021/04/06 13:59:44;;;;;;;11.2;6.6;;;;;;;2.32;84.80078;97523.27;;;;
2021/04/06 14:09:42;;;;;;;8.8;5.4;;;;;;;3.05;81.16113;97497.2;;;;
2021/04/06 14:19:41;;;;;;;9.7;5.9;;;;;;;3.95;76.5918;97489.79;;;;
2021/04/06 14:29:38;;;;;;;12.2;6.4;;;;;;;5.47;69.70605;97473.52;;;;
2021/04/06 14:39:36;;;;;;;8.3;5.5;;;;;;;6.41;62.37988;97470.73;;;;
2021/04/06 14:49:34;;;;;;;10.1;4.1;;;;;;;4.98;65.95215;97482.3;;;;
2021/04/06 14:59:32;;;;;;;12.3;8.3;;;;;;;4.42;67.35059;97485.24;;;;
2021/04/06 15:09:30;;;;;;;8.6;6;;;;;;;4.29;70.0498;97475.34;;;;
2021/04/06 15:19:28;;;;;;;13.6;7.3;;;;;;;6.93;65.49902;97471.73;;;;
2021/04/06 15:29:26;;;;;;;6.9;4.8;;;;;;;6.59;61.90039;97491.14;;;;
2021/04/06 15:39:25;;;;;;;11.2;6.3;;;;;;;5.71;61.78613;97484.72;;;;
2021/04/06 15:49:23;;;;;;;9.1;4.8;;;;;;;6.45;61.34277;97490.44;;;;
2021/04/06 15:59:21;;;;;;;11.2;7.7;;;;;;;6.82;60.99023;97497.2;;;;
2021/04/06 16:09:20;;;;;;;7.4;6;;;;;;;5.45;63.15039;97500.52;;;;
2021/04/06 16:19:18;;;;;;;9;6.9;;;;;;;4.07;66.42676;97499.98;;;;
2021/04/06 16:29:16;;;;;;;10.2;7.1;;;;;;;3.1;70.0332;97493.67;;;;
2021/04/06 16:39:14;;;;;;;11.5;6.7;;;;;;;2.22;71.79688;97496.78;;;;
2021/04/06 16:49:12;;;;;;;14.2;7.6;;;;;;;1.67;78.43945;97490.84;;;;
2021/04/06 16:59:09;;;;;;;11.2;7.5;;;;;;;1.07;86.85449;97504.48;;;;
2021/04/06 17:09:07;;;;;;;18.7;11.5;;;;;;;0.94;89.14844;97503.2;;;;
2021/04/06 17:19:05;;;;;;;15.5;11.1;;;;;;;0.8;91.84277;97510.17;;;;
2021/04/06 17:29:03;;;;;;;16;8.4;;;;;;;0.59;90.38086;97506;;;;
2021/04/06 17:39:00;;;;;;;14.5;8;;;;;;;0.28;89.3418;97508.69;;;;
2021/04/06 17:48:57;;;;;;;15.3;9.6;;;;;;;-0.2;92.52832;97515.34;;;;
2021/04/06 17:58:55;;;;;;;15.1;9;;;;;;;-0.49;94.14746;97521.42;;;;
2021/04/06 18:08:52;;;;;;;17.9;14.1;;;;;;;-0.73;96.96973;97534.34;;;;
2021/04/06 18:18:50;;;;;;;25.1;15;;;;;;;-0.93;97.1543;97540.34;;;;
2021/04/06 18:28:47;;;;;;;15;11;;;;;;;-1.13;98.10059;97537.62;;;;
2021/04/06 18:38:46;;;;;;;25.2;19.4;;;;;;;-1.41;100;97544.09;;;;
2021/04/06 18:48:43;;;;;;;16.7;10.9;;;;;;;-1.49;100;97544.56;;;;
2021/04/06 18:58:42;;;;;;;16.7;10.8;;;;;;;-1.53;99.5459;97538.22;;;;
2021/04/06 19:08:36;;;;;;;21;14.3;;;;;;;-1.67;99.64551;97545.8;;;;
2021/04/06 19:18:34;;;;;;;17.7;12.7;;;;;;;-1.8;100;97537.49;;;;
2021/04/06 19:28:31;;;;;;;18.9;10.6;;;;;;;-1.81;100;97557.84;;;;
2021/04/06 19:38:28;;;;;;;13.3;9.4;;;;;;;-1.94;99.87402;97550.33;;;;
2021/04/06 19:48:26;;;;;;;29.8;19.7;;;;;;;-2.07;99.9209;97556.84;;;;
2021/04/06 19:58:23;;;;;;;26.2;15.3;;;;;;;-2.18;99.9707;97557.8;;;;
2021/04/06 20:08:20;;;;;;;18.6;13.8;;;;;;;-2.37;100;97561.86;;;;
2021/04/06 20:18:18;;;;;;;17.6;13.5;;;;;;;-2.5;100;97554.36;;;;
2021/04/06 20:28:15;;;;;;;19.1;13.3;;;;;;;-2.55;100;97559.56;;;;
2021/04/06 20:38:12;;;;;;;18.3;12.9;;;;;;;-2.6;100;97565.58;;;;
2021/04/06 20:48:09;;;;;;;29.5;16.3;;;;;;;-2.6;100;97567.41;;;;
2021/04/06 20:58:06;;;;;;;28.7;20.4;;;;;;;-2.54;100;97566.44;;;;
2021/04/06 21:08:04;;;;;;;27.4;22.2;;;;;;;-2.44;100;97569.18;;;;
2021/04/06 21:18:01;;;;;;;26.6;18.5;;;;;;;-2.47;100;97560.97;;;;
2021/04/06 21:27:58;;;;;;;27.1;20.2;;;;;;;-2.62;100;97566.88;;;;
2021/04/06 21:37:55;;;;;;;25.9;18;;;;;;;-2.68;100;97562.59;;;;
2021/04/06 21:47:52;;;;;;;23.1;18.1;;;;;;;-2.81;100;97565.63;;;;
2021/04/06 21:57:50;;;;;;;27.2;18;;;;;;;-2.97;100;97550.66;;;;
2021/04/06 22:07:47;;;;;;;22.2;16.1;;;;;;;-3.02;100;97551.41;;;;
2021/04/06 22:17:44;;;;;;;21.6;15.7;;;;;;;-3.11;100;97537.86;;;;
2021/04/06 22:27:42;;;;;;;27.1;11;;;;;;;-3.05;100;97530.8;;;;
2021/04/06 22:37:38;;;;;;;16.1;10.7;;;;;;;-2.95;100;97524.87;;;;
2021/04/06 22:47:35;;;;;;;12.6;10.3;;;;;;;-2.96;100;97523.27;;;;
2021/04/06 22:57:33;;;;;;;15.6;8.4;;;;;;;-2.94;100;97515.9;;;;
2021/04/06 23:07:29;;;;;;;12.6;7.2;;;;;;;-3.05;100;97515.79;;;;
2021/04/06 23:17:26;;;;;;;11.6;7.6;;;;;;;-3.17;100;97512.5;;;;
2021/04/06 23:27:24;;;;;;;10;7.6;;;;;;;-3.38;100;97515.92;;;;
2021/04/06 23:37:21;;;;;;;9.7;7.5;;;;;;;-3.55;100;97523.08;;;;
2021/04/06 23:47:18;;;;;;;16.4;10;;;;;;;-3.65;100;97518.48;;;;
2021/04/06 23:57:15;;;;;;;18;12.2;;;;;;;-3.62;100;97535.63;;;;
